createdAt,value
2023-03-21T00:00:20.576Z,78.10
2023-03-21T00:02:46.980Z,77.66
2023-03-21T00:05:15.791Z,77.77
2023-03-21T00:07:42.586Z,77.70
2023-03-21T00:10:16.620Z,77.74
2023-03-21T00:12:44.653Z,78.11
2023-03-21T00:15:12.832Z,77.88
2023-03-21T00:17:39.758Z,77.71
2023-03-21T00:20:07.875Z,77.80
2023-03-21T00:22:35.675Z,77.83
2023-03-21T00:25:02.225Z,77.32
2023-03-21T00:27:47.557Z,77.15
2023-03-21T00:30:16.095Z,76.80
2023-03-21T00:32:55.142Z,76.70
2023-03-21T00:35:53.400Z,76.41
2023-03-21T00:38:09.451Z,76.36
2023-03-21T00:40:43.703Z,75.99
2023-03-21T00:43:19.152Z,75.94
2023-03-21T00:45:46.512Z,75.81
2023-03-21T00:48:13.572Z,75.49
2023-03-21T00:50:42.057Z,75.18
2023-03-21T00:53:08.787Z,75.54
2023-03-21T00:55:35.442Z,75.35
2023-03-21T00:58:02.728Z,75.09
2023-03-21T01:00:29.714Z,74.82
2023-03-21T01:03:02.883Z,74.74
2023-03-21T01:05:52.279Z,74.45
2023-03-21T01:08:27.979Z,74.28
2023-03-21T01:11:02.646Z,74.25
2023-03-21T01:13:29.013Z,74.40
2023-03-21T01:15:56.739Z,74.26
2023-03-21T01:18:27.211Z,74.40
2023-03-21T01:20:56.319Z,74.54
2023-03-21T01:23:26.169Z,74.85
2023-03-21T01:25:54.139Z,74.35
2023-03-21T01:28:20.822Z,74.32
2023-03-21T01:30:48.892Z,74.94
2023-03-21T01:33:16.170Z,75.21
2023-03-21T01:35:50.504Z,75.51
2023-03-21T01:38:22.194Z,75.64
2023-03-21T01:40:50.181Z,75.81
2023-03-21T01:43:29.548Z,76.14
2023-03-21T01:46:20.935Z,76.98
2023-03-21T01:49:12.854Z,77.17
2023-03-21T01:51:43.784Z,76.65
2023-03-21T01:54:15.166Z,76.80
2023-03-21T01:56:46.117Z,76.61
2023-03-21T01:59:24.738Z,77.37
2023-03-21T02:02:17.871Z,77.15
2023-03-21T02:04:58.127Z,77.08
2023-03-21T02:07:35.529Z,76.73
2023-03-21T02:10:09.827Z,76.53
2023-03-21T02:12:39.415Z,76.88
2023-03-21T02:15:08.894Z,76.79
2023-03-21T02:18:04.971Z,76.66
2023-03-21T02:21:02.446Z,76.49
2023-03-21T02:24:12.314Z,76.63
2023-03-21T02:27:04.755Z,76.33
2023-03-21T02:29:53.421Z,75.99
2023-03-21T02:32:37.683Z,76.25
2023-03-21T02:35:24.750Z,76.25
2023-03-21T02:38:14.436Z,76.52
2023-03-21T02:40:50.110Z,76.70
2023-03-21T02:43:27.287Z,77.56
2023-03-21T02:46:14.232Z,78.17
2023-03-21T02:48:59.815Z,78.80
2023-03-21T02:51:30.352Z,79.11
2023-03-21T02:54:26.531Z,78.96
2023-03-21T02:56:52.257Z,79.45
2023-03-21T02:59:21.121Z,79.60
2023-03-21T03:01:47.588Z,79.90
2023-03-21T03:04:22.487Z,80.12
2023-03-21T03:07:09.286Z,79.90
2023-03-21T03:09:55.587Z,80.05
2023-03-21T03:12:40.974Z,80.18
2023-03-21T03:15:21.862Z,80.33
2023-03-21T03:17:48.171Z,80.72
2023-03-21T03:20:28.837Z,80.02
2023-03-21T03:23:26.211Z,80.51
2023-03-21T03:26:01.809Z,80.77
2023-03-21T03:28:35.271Z,80.91
2023-03-21T03:31:12.686Z,80.56
2023-03-21T03:33:47.559Z,81.21
2023-03-21T03:36:33.374Z,81.27
2023-03-21T03:39:20.511Z,81.16
2023-03-21T03:42:27.230Z,81.07
2023-03-21T03:45:01.209Z,81.24
2023-03-21T03:47:55.974Z,81.51
2023-03-21T03:50:31.349Z,81.05
2023-03-21T03:53:18.040Z,81.17
2023-03-21T03:55:47.218Z,81.42
2023-03-21T03:58:23.796Z,81.07
2023-03-21T04:00:53.287Z,81.07
2023-03-21T04:03:20.940Z,81.37
2023-03-21T04:05:48.904Z,81.46
2023-03-21T04:08:16.265Z,81.38
2023-03-21T04:10:46.546Z,81.76
2023-03-21T04:13:13.316Z,81.64
2023-03-21T04:15:58.315Z,81.79
2023-03-21T04:18:24.722Z,82.08
2023-03-21T04:20:51.419Z,81.75
2023-03-21T04:23:20.099Z,82.08
2023-03-21T04:25:56.382Z,81.93
2023-03-21T04:28:29.423Z,81.29
2023-03-21T04:31:24.149Z,81.61
2023-03-21T04:33:55.818Z,81.33
2023-03-21T04:36:26.266Z,81.21
2023-03-21T04:38:57.073Z,81.29
2023-03-21T04:41:23.470Z,81.33
2023-03-21T04:43:49.861Z,81.30
2023-03-21T04:46:16.437Z,81.13
2023-03-21T04:48:42.871Z,80.67
2023-03-21T04:51:09.246Z,80.76
2023-03-21T04:53:38.297Z,80.63
2023-03-21T04:56:06.589Z,80.66
2023-03-21T04:58:33.751Z,80.25
2023-03-21T05:01:02.368Z,80.34
2023-03-21T05:03:29.865Z,80.45
2023-03-21T05:05:57.926Z,80.40
2023-03-21T05:08:24.253Z,79.72
2023-03-21T05:10:51.053Z,79.63
2023-03-21T05:13:17.553Z,79.46
2023-03-21T05:15:43.896Z,79.16
2023-03-21T05:18:10.991Z,78.87
2023-03-21T05:20:44.617Z,78.77
2023-03-21T05:23:11.735Z,78.38
2023-03-21T05:25:39.725Z,78.59
2023-03-21T05:28:12.063Z,78.44
2023-03-21T05:30:38.708Z,78.43
2023-03-21T05:33:06.496Z,78.35
2023-03-21T05:35:32.837Z,78.64
2023-03-21T05:38:04.210Z,78.70
2023-03-21T05:40:35.111Z,79.99
2023-03-21T05:43:02.970Z,80.17
2023-03-21T05:45:29.510Z,80.62
2023-03-21T05:47:55.933Z,81.22
2023-03-21T05:50:26.335Z,81.34
2023-03-21T05:53:15.831Z,81.54
2023-03-21T05:55:42.575Z,82.00
2023-03-21T05:58:14.599Z,82.25
2023-03-21T06:00:45.809Z,82.50
2023-03-21T06:03:20.934Z,82.86
2023-03-21T06:06:16.388Z,83.21
2023-03-21T06:08:52.783Z,84.28
2023-03-21T06:11:24.284Z,84.43
2023-03-21T06:13:54.114Z,84.62
2023-03-21T06:16:22.122Z,84.83
2023-03-21T06:18:48.878Z,85.08
2023-03-21T06:21:35.873Z,84.99
2023-03-21T06:24:03.491Z,85.52
2023-03-21T06:26:30.120Z,85.25
2023-03-21T06:28:57.384Z,85.36
2023-03-21T06:31:25.100Z,85.26
2023-03-21T06:33:53.616Z,85.26
2023-03-21T06:36:20.660Z,85.34
2023-03-21T06:38:48.597Z,85.34
2023-03-21T06:41:16.587Z,85.69
2023-03-21T06:43:50.911Z,85.74
2023-03-21T06:46:17.737Z,85.39
2023-03-21T06:48:44.453Z,85.16
2023-03-21T06:51:13.032Z,85.24
2023-03-21T06:53:45.766Z,85.37
2023-03-21T06:56:19.753Z,84.65
2023-03-21T06:58:46.523Z,84.66
2023-03-21T07:01:23.211Z,84.13
2023-03-21T07:03:58.253Z,84.48
2023-03-21T07:06:26.581Z,83.56
2023-03-21T07:08:54.876Z,83.47
2023-03-21T07:11:23.801Z,83.16
2023-03-21T07:13:51.056Z,83.27
2023-03-21T07:16:18.785Z,82.85
2023-03-21T07:18:45.437Z,82.60
2023-03-21T07:21:12.021Z,82.14
2023-03-21T07:23:41.279Z,82.13
2023-03-21T07:26:08.121Z,82.11
2023-03-21T07:28:34.739Z,82.26
2023-03-21T07:31:04.196Z,81.88
2023-03-21T07:33:31.441Z,81.54
2023-03-21T07:36:00.448Z,81.01
2023-03-21T07:38:27.429Z,81.64
2023-03-21T07:40:54.028Z,81.71
2023-03-21T07:43:20.602Z,81.00
2023-03-21T07:45:49.598Z,81.40
2023-03-21T07:48:17.831Z,80.95
2023-03-21T07:50:44.270Z,80.83
2023-03-21T07:53:10.656Z,80.32
2023-03-21T07:55:37.184Z,80.24
2023-03-21T07:58:04.229Z,80.29
2023-03-21T08:00:30.997Z,80.37
2023-03-21T08:02:59.119Z,80.03
2023-03-21T08:05:28.698Z,80.30
2023-03-21T08:07:55.717Z,80.57
2023-03-21T08:10:22.544Z,80.96
2023-03-21T08:12:49.854Z,80.33
2023-03-21T08:15:16.881Z,80.57
2023-03-21T08:17:45.368Z,81.20
2023-03-21T08:20:15.681Z,80.83
2023-03-21T08:22:43.145Z,80.52
2023-03-21T08:25:15.063Z,80.69
2023-03-21T08:27:43.202Z,80.49
2023-03-21T08:30:12.308Z,78.94
2023-03-21T08:32:40.168Z,79.12
2023-03-21T08:35:11.433Z,79.42
2023-03-21T08:37:39.226Z,79.09
2023-03-21T08:40:11.176Z,79.31
2023-03-21T08:42:38.258Z,78.78
2023-03-21T08:45:05.726Z,78.80
2023-03-21T08:47:32.380Z,79.11
2023-03-21T08:49:59.328Z,79.47
2023-03-21T08:52:27.096Z,79.54
2023-03-21T08:54:54.174Z,79.29
2023-03-21T08:57:20.499Z,80.30
2023-03-21T08:59:46.895Z,80.42
2023-03-21T09:02:15.603Z,80.91
2023-03-21T09:04:43.741Z,80.67
2023-03-21T09:07:12.360Z,79.95
2023-03-21T09:09:39.305Z,80.54
2023-03-21T09:12:05.906Z,80.81
2023-03-21T09:14:33.154Z,80.46
2023-03-21T09:16:59.481Z,79.51
2023-03-21T09:19:27.742Z,79.96
2023-03-21T09:21:55.549Z,80.50
2023-03-21T09:24:21.881Z,80.97
2023-03-21T09:26:50.782Z,80.55
2023-03-21T09:29:19.440Z,80.87
2023-03-21T09:31:46.985Z,81.04
2023-03-21T09:34:15.182Z,81.35
2023-03-21T09:36:44.075Z,82.32
2023-03-21T09:39:11.832Z,82.78
2023-03-21T09:42:23.074Z,83.19
2023-03-21T09:45:06.050Z,83.12
2023-03-21T09:47:53.112Z,84.08
2023-03-21T09:50:30.178Z,84.17
2023-03-21T09:53:00.211Z,84.60
2023-03-21T09:55:31.050Z,84.60
2023-03-21T09:58:24.376Z,84.82
2023-03-21T10:00:56.531Z,84.74
2023-03-21T10:03:26.174Z,83.85
2023-03-21T10:05:58.710Z,84.72
2023-03-21T10:08:31.018Z,84.91
2023-03-21T10:11:02.195Z,84.73
2023-03-21T10:13:56.641Z,83.99
2023-03-21T10:16:27.460Z,82.67
2023-03-21T10:18:55.128Z,82.05
2023-03-21T10:21:51.337Z,82.76
2023-03-21T10:24:26.360Z,80.63
2023-03-21T10:26:54.249Z,80.65
2023-03-21T10:29:26.176Z,80.99
2023-03-21T10:31:54.632Z,79.68
2023-03-21T10:34:32.836Z,80.08
2023-03-21T10:37:01.691Z,79.39
2023-03-21T10:39:35.595Z,80.37
2023-03-21T10:42:02.180Z,79.98
2023-03-21T10:44:31.011Z,80.61
2023-03-21T10:47:02.989Z,79.71
2023-03-21T10:49:40.193Z,81.36
2023-03-21T10:52:18.171Z,80.88
2023-03-21T10:54:45.102Z,81.69
2023-03-21T10:57:23.008Z,82.61
2023-03-21T11:00:00.882Z,81.97
2023-03-21T11:02:34.707Z,83.45
2023-03-21T11:05:07.516Z,82.74
2023-03-21T11:07:36.003Z,83.15
2023-03-21T11:10:17.169Z,83.38
2023-03-21T11:12:48.147Z,82.60
2023-03-21T11:15:37.726Z,82.97
2023-03-21T11:18:39.040Z,82.57
2023-03-21T11:21:08.486Z,82.67
2023-03-21T11:23:43.828Z,82.27
2023-03-21T11:26:16.512Z,81.92
2023-03-21T11:28:44.772Z,82.63
2023-03-21T11:31:11.727Z,82.42
2023-03-21T11:33:49.474Z,81.02
2023-03-21T11:36:18.973Z,81.63
2023-03-21T11:38:51.075Z,81.49
2023-03-21T11:41:47.340Z,82.35
2023-03-21T11:44:44.041Z,79.68
2023-03-21T11:47:11.226Z,81.15
2023-03-21T11:49:37.913Z,81.50
2023-03-21T11:52:25.633Z,79.26
2023-03-21T11:55:01.547Z,79.52
2023-03-21T11:57:37.110Z,80.40
2023-03-21T12:00:15.721Z,80.02
2023-03-21T12:03:06.400Z,77.62
2023-03-21T12:05:43.360Z,77.97
2023-03-21T12:08:12.646Z,75.27
2023-03-21T12:10:49.341Z,75.26
2023-03-21T12:13:44.696Z,74.98
2023-03-21T12:16:25.585Z,72.21
2023-03-21T12:19:22.761Z,73.42
2023-03-21T12:22:01.328Z,72.09
2023-03-21T12:24:45.939Z,71.44
2023-03-21T12:27:39.136Z,71.13
2023-03-21T12:30:36.860Z,70.68
2023-03-21T12:33:22.058Z,71.20
2023-03-21T12:35:55.020Z,70.63
2023-03-21T12:38:41.657Z,69.86
2023-03-21T12:41:30.488Z,69.39
2023-03-21T12:44:13.893Z,69.05
2023-03-21T12:46:48.745Z,70.45
2023-03-21T12:49:22.906Z,69.12
2023-03-21T12:51:54.633Z,69.82
2023-03-21T12:54:25.346Z,71.33
2023-03-21T12:57:02.059Z,72.04
2023-03-21T12:59:56.605Z,72.51
2023-03-21T13:02:32.788Z,71.65
2023-03-21T13:05:09.992Z,72.53
2023-03-21T13:07:41.945Z,73.03
2023-03-21T13:10:24.087Z,72.49
2023-03-21T13:13:13.355Z,71.44
2023-03-21T13:16:12.213Z,72.52
2023-03-21T13:19:19.775Z,71.90
2023-03-21T13:22:04.490Z,72.60
2023-03-21T13:24:48.047Z,73.03
2023-03-21T13:27:26.142Z,73.11
2023-03-21T13:30:00.894Z,72.78
2023-03-21T13:32:40.343Z,73.04
2023-03-21T13:35:12.501Z,72.53
2023-03-21T13:37:58.061Z,72.07
2023-03-21T13:40:49.549Z,72.58
2023-03-21T13:43:43.617Z,72.97
2023-03-21T13:46:14.463Z,73.65
2023-03-21T13:49:00.525Z,72.43
2023-03-21T13:51:35.976Z,72.84
2023-03-21T13:54:08.684Z,71.88
2023-03-21T13:56:46.997Z,71.72
2023-03-21T13:59:18.677Z,70.68
2023-03-21T14:01:58.764Z,70.44
2023-03-21T14:04:42.551Z,69.83
2023-03-21T14:07:42.018Z,68.78
2023-03-21T14:10:20.024Z,69.30
2023-03-21T14:12:47.415Z,68.64
2023-03-21T14:15:19.255Z,69.43
2023-03-21T14:18:10.959Z,69.06
2023-03-21T14:20:56.114Z,68.45
2023-03-21T14:23:23.091Z,68.77
2023-03-21T14:25:50.518Z,68.63
2023-03-21T14:28:23.738Z,68.99
2023-03-21T14:30:53.712Z,69.32
2023-03-21T14:33:36.187Z,68.13
2023-03-21T14:36:18.902Z,67.43
2023-03-21T14:38:55.325Z,67.37
2023-03-21T14:41:25.173Z,68.39
2023-03-21T14:44:35.926Z,67.67
2023-03-21T14:47:22.138Z,66.85
2023-03-21T14:49:49.620Z,66.10
2023-03-21T14:52:24.923Z,65.81
2023-03-21T14:54:52.548Z,67.32
2023-03-21T14:57:22.568Z,65.92
2023-03-21T14:59:54.016Z,67.14
2023-03-21T15:02:27.890Z,67.71
2023-03-21T15:04:58.001Z,67.06
2023-03-21T15:07:33.309Z,67.92
2023-03-21T15:10:08.330Z,67.18
2023-03-21T15:12:34.718Z,67.94
2023-03-21T15:15:02.238Z,67.47
2023-03-21T15:17:29.124Z,67.08
2023-03-21T15:19:55.477Z,68.45
2023-03-21T15:22:32.091Z,68.14
2023-03-21T15:25:03.058Z,67.60
2023-03-21T15:27:32.820Z,66.97
2023-03-21T15:29:59.335Z,65.92
2023-03-21T15:32:28.070Z,66.31
2023-03-21T15:35:03.388Z,65.99
2023-03-21T15:37:34.540Z,64.06
2023-03-21T15:40:21.434Z,64.19
2023-03-21T15:42:47.793Z,64.48
2023-03-21T15:45:24.636Z,63.93
2023-03-21T15:48:06.346Z,64.78
2023-03-21T15:50:37.435Z,66.07
2023-03-21T15:53:14.624Z,65.77
2023-03-21T15:55:52.024Z,65.52
2023-03-21T15:58:24.475Z,64.73
2023-03-21T16:00:55.853Z,64.24
2023-03-21T16:03:30.278Z,63.98
2023-03-21T16:06:12.408Z,63.69
2023-03-21T16:08:46.964Z,63.68
2023-03-21T16:11:22.386Z,65.07
2023-03-21T16:13:49.693Z,65.29
2023-03-21T16:16:21.784Z,65.86
2023-03-21T16:18:48.287Z,66.20
2023-03-21T16:21:17.246Z,66.26
2023-03-21T16:23:44.402Z,66.56
2023-03-21T16:26:13.813Z,67.08
2023-03-21T16:28:40.349Z,66.79
2023-03-21T16:31:08.997Z,67.02
2023-03-21T16:33:35.694Z,66.70
2023-03-21T16:36:02.653Z,67.09
2023-03-21T16:38:29.104Z,66.71
2023-03-21T16:40:55.595Z,66.24
2023-03-21T16:43:21.967Z,67.06
2023-03-21T16:45:48.416Z,67.50
2023-03-21T16:48:17.622Z,67.43
2023-03-21T16:50:47.669Z,67.66
2023-03-21T16:53:14.020Z,68.07
2023-03-21T16:55:40.915Z,68.05
2023-03-21T16:58:07.294Z,67.58
2023-03-21T17:00:34.036Z,67.65
2023-03-21T17:03:08.571Z,67.63
2023-03-21T17:05:35.138Z,67.79
2023-03-21T17:08:02.734Z,67.98
2023-03-21T17:12:57.773Z,68.43
2023-03-21T17:15:24.153Z,68.09
2023-03-21T17:17:50.506Z,68.19
2023-03-21T17:20:24.757Z,68.16
2023-03-21T17:22:51.407Z,68.37
2023-03-21T17:25:18.908Z,68.67
2023-03-21T17:27:45.659Z,68.96
2023-03-21T17:30:33.804Z,68.24
2023-03-21T17:33:00.297Z,68.54
2023-03-21T17:35:27.873Z,69.46
2023-03-21T17:37:58.059Z,69.43
2023-03-21T17:40:29.972Z,69.12
2023-03-21T17:42:57.324Z,69.26
2023-03-21T17:45:23.892Z,69.59
2023-03-21T17:47:51.235Z,70.12
2023-03-21T17:50:37.237Z,69.58
2023-03-21T17:53:04.068Z,69.73
2023-03-21T17:55:30.603Z,69.68
2023-03-21T17:57:57.043Z,70.17
2023-03-21T18:00:25.966Z,70.60
2023-03-21T18:02:53.049Z,69.94
2023-03-21T18:05:26.160Z,70.55
2023-03-21T18:08:11.219Z,69.82
2023-03-21T18:10:40.214Z,70.56
2023-03-21T18:13:06.898Z,71.33
2023-03-21T18:15:33.701Z,71.84
2023-03-21T18:18:00.100Z,72.58
2023-03-21T18:20:49.800Z,71.97
2023-03-21T18:23:14.828Z,73.01
2023-03-21T18:25:41.687Z,72.78
2023-03-21T18:28:11.799Z,71.91
2023-03-21T18:30:56.961Z,72.36
2023-03-21T18:33:27.108Z,73.19
2023-03-21T18:35:58.813Z,73.55
2023-03-21T18:38:26.315Z,74.02
2023-03-21T18:40:52.687Z,72.96
2023-03-21T18:46:06.216Z,73.40
2023-03-21T18:48:34.134Z,73.70
2023-03-21T18:51:00.924Z,73.61
2023-03-21T18:53:27.640Z,73.50
2023-03-21T18:55:54.230Z,73.40
2023-03-21T18:58:21.199Z,73.11
2023-03-21T19:00:49.018Z,73.30
2023-03-21T19:03:24.864Z,73.33
2023-03-21T19:06:00.746Z,74.96
2023-03-21T19:08:27.176Z,76.82
2023-03-21T19:10:53.823Z,76.99
2023-03-21T19:13:20.587Z,77.95
2023-03-21T19:15:49.594Z,78.09
2023-03-21T19:18:37.913Z,77.76
2023-03-21T19:21:03.401Z,77.29
2023-03-21T19:23:40.917Z,77.30
2023-03-21T19:26:16.200Z,77.75
2023-03-21T19:28:42.510Z,78.57
2023-03-21T19:31:08.868Z,78.90
2023-03-21T19:33:35.398Z,78.99
2023-03-21T19:36:15.320Z,79.06
2023-03-21T19:38:44.876Z,79.39
2023-03-21T19:41:11.233Z,79.37
2023-03-21T19:43:39.885Z,79.01
2023-03-21T19:46:06.941Z,78.25
2023-03-21T19:48:33.466Z,78.44
2023-03-21T19:51:36.392Z,78.28
2023-03-21T19:53:49.066Z,79.12
2023-03-21T19:56:22.459Z,78.58
2023-03-21T19:58:50.474Z,78.27
2023-03-21T20:01:17.089Z,78.00
2023-03-21T20:03:44.458Z,77.90
2023-03-21T20:06:11.543Z,77.89
2023-03-21T20:09:05.753Z,78.22
2023-03-21T20:11:24.170Z,77.70
2023-03-21T20:13:50.571Z,77.90
2023-03-21T20:16:18.296Z,78.06
2023-03-21T20:18:45.524Z,77.92
2023-03-21T20:21:17.535Z,78.22
2023-03-21T20:23:49.096Z,78.27
2023-03-21T20:26:16.183Z,78.06
2023-03-21T20:28:55.910Z,77.88
2023-03-21T20:31:26.205Z,78.05
2023-03-21T20:33:53.046Z,77.55
2023-03-21T20:36:38.585Z,77.98
2023-03-21T20:39:06.822Z,78.19
2023-03-21T20:41:33.181Z,78.12
2023-03-21T20:46:47.552Z,78.35
2023-03-21T20:49:15.199Z,78.37
2023-03-21T20:54:28.634Z,78.75
2023-03-21T20:56:55.214Z,78.93
2023-03-21T20:59:27.113Z,78.66
2023-03-21T21:01:57.696Z,79.05
2023-03-21T21:04:46.700Z,79.12
2023-03-21T21:07:15.846Z,78.52
2023-03-21T21:09:43.778Z,79.25
2023-03-21T21:12:11.520Z,78.99
2023-03-21T21:14:38.788Z,79.18
2023-03-21T21:17:23.846Z,78.71
2023-03-21T21:19:52.460Z,78.81
2023-03-21T21:22:18.957Z,78.46
2023-03-21T21:24:45.290Z,78.10
2023-03-21T21:27:11.891Z,77.82
2023-03-21T21:29:38.405Z,78.01
2023-03-21T21:32:05.155Z,78.18
2023-03-21T21:34:31.571Z,77.17
2023-03-21T21:36:57.965Z,77.26
2023-03-21T21:39:26.309Z,76.98
2023-03-21T21:41:53.832Z,77.30
2023-03-21T21:44:20.518Z,76.60
2023-03-21T21:46:47.109Z,76.87
2023-03-21T21:49:13.592Z,76.34
2023-03-21T21:51:41.705Z,76.35
2023-03-21T21:54:08.051Z,76.40
2023-03-21T21:56:36.381Z,76.27
2023-03-21T21:59:03.938Z,75.93
2023-03-21T22:01:34.436Z,75.22
2023-03-21T22:04:08.113Z,75.33
2023-03-21T22:06:34.770Z,75.17
2023-03-21T22:09:02.181Z,74.02
2023-03-21T22:11:28.505Z,75.14
2023-03-21T22:13:54.824Z,75.00
2023-03-21T22:16:21.489Z,74.87
2023-03-21T22:18:47.992Z,74.95
2023-03-21T22:21:14.447Z,74.40
2023-03-21T22:23:43.391Z,74.10
2023-03-21T22:26:10.428Z,74.49
2023-03-21T22:28:39.696Z,74.88
2023-03-21T22:31:09.446Z,74.70
2023-03-21T22:33:35.824Z,74.38
2023-03-21T22:36:02.302Z,74.79
2023-03-21T22:38:28.779Z,74.71
2023-03-21T22:40:59.694Z,74.38
2023-03-21T22:43:26.171Z,74.13
2023-03-21T22:45:52.980Z,72.82
2023-03-21T22:48:20.109Z,73.33
2023-03-21T22:50:46.892Z,73.31
2023-03-21T22:53:13.999Z,73.10
2023-03-21T22:55:40.405Z,73.59
2023-03-21T22:58:06.788Z,73.45
2023-03-21T23:00:33.397Z,72.40
2023-03-21T23:02:59.956Z,72.77
2023-03-21T23:05:26.604Z,72.23
2023-03-21T23:07:53.015Z,72.48
2023-03-21T23:10:19.597Z,72.22
2023-03-21T23:12:46.023Z,72.28
2023-03-21T23:15:12.442Z,73.11
2023-03-21T23:17:38.840Z,72.43
2023-03-21T23:20:07.761Z,73.19
2023-03-21T23:22:35.373Z,73.15
2023-03-21T23:25:02.090Z,73.03
2023-03-21T23:27:29.236Z,72.99
2023-03-21T23:29:56.796Z,73.04
2023-03-21T23:32:23.782Z,72.46
2023-03-21T23:34:50.145Z,73.17
2023-03-21T23:37:16.582Z,72.73
2023-03-21T23:39:45.031Z,72.91
2023-03-21T23:42:11.396Z,72.88
2023-03-21T23:44:37.852Z,73.83
2023-03-21T23:47:04.225Z,74.39
2023-03-21T23:49:33.501Z,74.42
2023-03-21T23:51:59.960Z,73.81
2023-03-21T23:54:26.472Z,74.23
2023-03-21T23:56:52.797Z,74.06
2023-03-21T23:59:19.127Z,73.51
